Time,TemperatureF,DewpointF,PressureIn,WindDirection,WindDirectionDegrees,WindSpeedMPH,WindSpeedGustMPH,Humidity,HourlyPrecipIn,Conditions,Clouds,dailyrainin,SoftwareType,DateUTC
2013-01-17 00:04:00,32.7,32.7,30.37,North,11,0.0,0.0,100,0.00,,,0.00,WeatherDisplay:10.37,2013-01-17 08:04:00,
2013-01-17 00:09:00,32.7,32.7,30.36,North,11,0.0,0.0,100,0.00,,,0.00,WeatherDisplay:10.37,2013-01-17 08:09:00,
2013-01-17 00:14:00,32.7,32.7,30.36,North,11,0.0,0.0,100,0.00,,,0.00,WeatherDisplay:10.37,2013-01-17 08:14:00,
2013-01-17 00:19:00,32.8,32.8,30.36,North,11,0.0,0.0,100,0.00,,,0.00,WeatherDisplay:10.37,2013-01-17 08:19:00,
2013-01-17 00:24:00,32.8,32.8,30.36,North,11,0.0,0.0,100,0.00,,,0.00,WeatherDisplay:10.37,2013-01-17 08:24:00,
2013-01-17 00:29:00,32.8,32.8,30.36,East,100,0.0,0.0,100,0.00,,,0.00,WeatherDisplay:10.37,2013-01-17 08:29:00,
2013-01-17 00:34:00,32.8,32.8,30.36,East,100,0.0,0.0,100,0.00,,,0.00,WeatherDisplay:10.37,2013-01-17 08:34:00,
2013-01-17 00:39:00,32.8,32.8,30.36,East,100,0.0,0.0,100,0.00,,,0.00,WeatherDisplay:10.37,2013-01-17 08:39:00,
2013-01-17 00:44:00,32.9,32.9,30.36,East,100,0.0,0.0,100,0.00,,,0.00,WeatherDisplay:10.37,2013-01-17 08:44:00,
2013-01-17 00:49:00,32.8,32.8,30.35,West,263,0.0,0.0,100,0.00,,,0.00,WeatherDisplay:10.37,2013-01-17 08:49:00,
2013-01-17 00:54:00,32.9,32.9,30.35,West,263,0.0,0.0,100,0.00,,,0.00,WeatherDisplay:10.37,2013-01-17 08:54:00,
2013-01-17 00:59:00,32.9,32.9,30.35,West,263,0.0,0.0,100,0.00,,,0.00,WeatherDisplay:10.37,2013-01-17 08:59:00,
2013-01-17 01:04:00,32.9,32.9,30.35,West,263,0.0,0.0,100,0.00,,,0.00,WeatherDisplay:10.37,2013-01-17 09:04:00,
2013-01-17 01:09:00,32.9,32.9,30.35,West,263,0.0,0.0,100,0.00,,,0.00,WeatherDisplay:10.37,2013-01-17 09:09:00,
2013-01-17 01:14:00,32.9,32.9,30.35,West,263,0.0,0.0,100,0.00,,,0.00,WeatherDisplay:10.37,2013-01-17 09:14:00,
2013-01-17 01:19:00,33.0,33.0,30.35,West,263,0.0,0.0,100,0.00,,,0.00,WeatherDisplay:10.37,2013-01-17 09:19:00,
2013-01-17 01:24:00,33.0,33.0,30.35,West,263,0.0,0.0,100,0.00,,,0.00,WeatherDisplay:10.37,2013-01-17 09:24:00,
2013-01-17 01:29:00,33.0,33.0,30.35,West,263,0.0,0.0,100,0.00,,,0.00,WeatherDisplay:10.37,2013-01-17 09:29:00,
2013-01-17 01:34:00,33.0,33.0,30.35,West,263,0.0,0.0,100,0.00,,,0.00,WeatherDisplay:10.37,2013-01-17 09:34:00,
2013-01-17 01:39:00,32.9,32.9,30.35,NNE,13,0.0,0.0,100,0.00,,,0.00,WeatherDisplay:10.37,2013-01-17 09:39:00,
2013-01-17 01:44:00,32.9,32.9,30.35,NNE,13,0.0,0.0,100,0.00,,,0.00,WeatherDisplay:10.37,2013-01-17 09:44:00,
2013-01-17 01:49:00,32.8,32.8,30.34,NNE,13,0.0,0.0,100,0.00,,,0.00,WeatherDisplay:10.37,2013-01-17 09:49:00,
2013-01-17 01:54:00,32.8,32.8,30.34,NNE,13,0.0,0.0,100,0.00,,,0.00,WeatherDisplay:10.37,2013-01-17 09:54:00,
2013-01-17 01:59:00,32.9,32.9,30.34,NNE,13,0.0,0.0,100,0.00,,,0.00,WeatherDisplay:10.37,2013-01-17 09:59:00,
2013-01-17 02:04:00,32.6,32.6,30.34,NE,54,4.6,4.6,100,0.00,,,0.00,WeatherDisplay:10.37,2013-01-17 10:04:00,
2013-01-17 02:09:00,32.7,32.7,30.34,NE,40,0.0,0.0,100,0.00,,,0.00,WeatherDisplay:10.37,2013-01-17 10:09:00,
2013-01-17 02:14:00,32.7,32.7,30.34,NE,40,0.0,0.0,100,0.00,,,0.00,WeatherDisplay:10.37,2013-01-17 10:14:00,
2013-01-17 02:19:00,32.7,32.7,30.34,NE,40,0.0,0.0,100,0.00,,,0.00,WeatherDisplay:10.37,2013-01-17 10:19:00,
2013-01-17 02:24:00,32.6,32.6,30.34,NE,34,0.0,0.0,100,0.00,,,0.00,WeatherDisplay:10.37,2013-01-17 10:24:00,
2013-01-17 02:29:00,32.5,32.5,30.34,ENE,68,0.0,0.0,100,0.00,,,0.00,WeatherDisplay:10.37,2013-01-17 10:29:00,
2013-01-17 02:34:00,32.5,32.5,30.34,NNE,14,2.3,2.3,100,0.00,,,0.00,WeatherDisplay:10.37,2013-01-17 10:34:00,
2013-01-17 02:39:00,32.5,32.5,30.34,NNW,346,4.6,4.6,100,0.00,,,0.00,WeatherDisplay:10.37,2013-01-17 10:39:00,
2013-01-17 02:44:00,32.5,32.5,30.34,WNW,299,2.3,0.0,100,0.00,,,0.00,WeatherDisplay:10.37,2013-01-17 10:44:00,
2013-01-17 02:49:00,32.5,32.5,30.34,WNW,299,0.0,0.0,100,0.00,,,0.00,WeatherDisplay:10.37,2013-01-17 10:49:00,
2013-01-17 02:54:00,32.4,32.4,30.34,North,7,3.5,3.5,100,0.00,,,0.00,WeatherDisplay:10.37,2013-01-17 10:54:00,
2013-01-17 02:59:00,32.0,32.0,30.34,NNE,23,4.6,4.6,100,0.00,,,0.00,WeatherDisplay:10.37,2013-01-17 10:59:00,
2013-01-17 03:04:00,32.3,32.3,30.34,NNW,340,1.2,1.2,100,0.00,,,0.00,WeatherDisplay:10.37,2013-01-17 11:04:00,
2013-01-17 03:09:00,32.3,32.3,30.34,North,4,5.9,5.9,100,0.00,,,0.00,WeatherDisplay:10.37,2013-01-17 11:09:00,
2013-01-17 03:14:00,32.2,32.2,30.34,NNE,27,6.9,6.9,100,0.00,,,0.00,WeatherDisplay:10.37,2013-01-17 11:14:00,
2013-01-17 03:19:00,32.3,32.3,30.34,NNW,343,3.5,3.5,100,0.00,,,0.00,WeatherDisplay:10.37,2013-01-17 11:19:00,
2013-01-17 03:24:00,32.1,32.1,30.34,NNE,27,5.8,5.8,100,0.00,,,0.00,WeatherDisplay:10.37,2013-01-17 11:24:00,
2013-01-17 03:29:00,32.1,32.1,30.34,NNW,335,5.8,5.8,100,0.00,,,0.00,WeatherDisplay:10.37,2013-01-17 11:29:00,
2013-01-17 03:34:00,31.9,31.9,30.34,NNE,30,4.6,4.6,100,0.00,,,0.00,WeatherDisplay:10.37,2013-01-17 11:34:00,
2013-01-17 03:39:00,32.0,32.0,30.34,NNE,23,6.9,6.9,100,0.00,,,0.00,WeatherDisplay:10.37,2013-01-17 11:39:00,
2013-01-17 03:44:00,32.2,32.2,30.34,NNE,23,5.8,5.8,100,0.00,,,0.00,WeatherDisplay:10.37,2013-01-17 11:44:00,
2013-01-17 03:49:00,32.0,32.0,30.34,NNE,23,6.9,6.9,100,0.00,,,0.00,WeatherDisplay:10.37,2013-01-17 11:49:00,
2013-01-17 03:54:00,31.8,31.8,30.34,NNE,16,9.2,9.2,100,0.00,,,0.00,WeatherDisplay:10.37,2013-01-17 11:54:00,
2013-01-17 03:59:00,32.0,32.0,30.34,North,8,6.9,6.9,100,0.00,CLR,,0.00,WeatherDisplay:10.37,2013-01-17 11:59:00,
2013-01-17 04:04:00,32.2,32.2,30.33,North,354,4.6,4.6,100,0.00,,,0.00,WeatherDisplay:10.37,2013-01-17 12:04:00,
2013-01-17 04:09:00,32.1,32.1,30.33,NNW,340,3.5,3.5,100,0.00,,,0.00,WeatherDisplay:10.37,2013-01-17 12:09:00,
2013-01-17 04:14:00,32.2,32.2,30.33,NNE,13,7.0,7.0,100,0.00,,,0.00,WeatherDisplay:10.37,2013-01-17 12:14:00,
2013-01-17 04:19:00,32.3,32.3,30.33,North,11,2.3,0.0,100,0.00,,,0.00,WeatherDisplay:10.37,2013-01-17 12:19:00,
2013-01-17 04:24:00,32.4,32.4,30.33,North,11,0.0,0.0,100,0.00,,,0.00,WeatherDisplay:10.37,2013-01-17 12:24:00,
2013-01-17 04:29:00,32.4,32.4,30.33,North,11,0.0,0.0,100,0.00,,,0.00,WeatherDisplay:10.37,2013-01-17 12:29:00,
2013-01-17 04:34:00,32.4,32.4,30.33,NNW,344,5.8,5.8,100,0.00,,,0.00,WeatherDisplay:10.37,2013-01-17 12:34:00,
2013-01-17 04:39:00,32.4,32.4,30.33,NNW,329,4.6,4.6,100,0.00,,,0.00,WeatherDisplay:10.37,2013-01-17 12:39:00,
2013-01-17 04:44:00,32.4,32.4,30.33,NNW,343,2.5,2.5,100,0.00,,,0.00,WeatherDisplay:10.37,2013-01-17 12:44:00,
2013-01-17 04:49:00,32.5,32.5,30.33,North,359,3.5,3.5,100,0.00,,,0.00,WeatherDisplay:10.37,2013-01-17 12:49:00,
2013-01-17 04:54:00,32.5,32.5,30.33,NNW,340,3.5,3.5,100,0.00,,,0.00,WeatherDisplay:10.37,2013-01-17 12:54:00,
2013-01-17 04:59:00,32.6,32.6,30.33,NNW,333,3.5,3.5,100,0.00,,,0.00,WeatherDisplay:10.37,2013-01-17 12:59:00,
2013-01-17 05:04:00,32.5,32.5,30.32,NNW,332,4.8,4.8,100,0.00,,,0.00,WeatherDisplay:10.37,2013-01-17 13:04:00,
2013-01-17 05:09:00,32.5,32.5,30.32,North,357,5.8,5.8,100,0.00,,,0.00,WeatherDisplay:10.37,2013-01-17 13:09:00,
2013-01-17 05:14:00,32.4,32.4,30.32,North,11,5.8,5.8,100,0.00,,,0.00,WeatherDisplay:10.37,2013-01-17 13:14:00,
2013-01-17 05:19:00,32.1,32.1,30.32,NNE,25,6.9,6.9,100,0.00,,,0.00,WeatherDisplay:10.37,2013-01-17 13:19:00,
2013-01-17 05:24:00,32.1,32.1,30.32,NNE,25,6.9,6.9,100,0.00,,,0.00,WeatherDisplay:10.37,2013-01-17 13:24:00,
2013-01-17 05:29:00,32.3,32.3,30.32,NNE,17,5.2,5.2,100,0.00,,,0.00,WeatherDisplay:10.37,2013-01-17 13:29:00,
2013-01-17 05:34:00,32.2,32.2,30.32,NNE,25,3.5,3.5,100,0.00,,,0.00,WeatherDisplay:10.37,2013-01-17 13:34:00,
2013-01-17 05:39:00,32.5,32.5,30.32,NW,313,2.3,2.3,100,0.00,,,0.00,WeatherDisplay:10.37,2013-01-17 13:39:00,
2013-01-17 05:44:00,32.5,32.5,30.31,NNW,342,6.9,6.9,100,0.00,,,0.00,WeatherDisplay:10.37,2013-01-17 13:44:00,
2013-01-17 05:49:00,32.5,32.5,30.31,North,0,3.5,3.5,100,0.00,,,0.00,WeatherDisplay:10.37,2013-01-17 13:49:00,
2013-01-17 05:55:00,32.5,32.5,30.32,North,350,1.9,1.9,100,0.00,,,0.00,WeatherDisplay:10.37,2013-01-17 13:55:00,
2013-01-17 06:00:00,32.6,32.6,30.31,North,356,2.3,2.3,100,0.00,,,0.00,WeatherDisplay:10.37,2013-01-17 14:00:00,
2013-01-17 06:05:00,32.7,32.7,30.31,NNW,344,2.7,2.7,100,0.00,,,0.00,WeatherDisplay:10.37,2013-01-17 14:05:00,
2013-01-17 06:10:00,32.7,32.7,30.31,NNE,16,3.5,3.5,100,0.00,,,0.00,WeatherDisplay:10.37,2013-01-17 14:10:00,
2013-01-17 06:15:00,32.6,32.6,30.31,North,359,1.3,1.3,100,0.00,,,0.00,WeatherDisplay:10.37,2013-01-17 14:15:00,
2013-01-17 06:20:00,32.8,32.8,30.31,NW,325,4.6,4.6,100,0.00,,,0.00,WeatherDisplay:10.37,2013-01-17 14:20:00,
2013-01-17 06:25:00,32.6,32.6,30.31,North,11,4.6,4.6,100,0.00,,,0.00,WeatherDisplay:10.37,2013-01-17 14:25:00,
2013-01-17 06:30:00,32.8,32.8,30.31,North,360,4.6,4.6,100,0.00,,,0.00,WeatherDisplay:10.37,2013-01-17 14:30:00,
2013-01-17 06:35:00,32.7,32.7,30.31,North,356,3.5,3.5,100,0.00,,,0.00,WeatherDisplay:10.37,2013-01-17 14:35:00,
2013-01-17 06:40:00,32.7,32.7,30.31,NNE,18,3.5,3.5,100,0.00,,,0.00,WeatherDisplay:10.37,2013-01-17 14:40:00,
2013-01-17 06:45:00,32.7,32.7,30.31,NNW,347,3.5,3.5,100,0.00,,,0.00,WeatherDisplay:10.37,2013-01-17 14:45:00,
2013-01-17 06:50:00,32.8,32.8,30.31,NW,320,1.2,1.2,100,0.00,,,0.00,WeatherDisplay:10.37,2013-01-17 14:50:00,
2013-01-17 06:55:00,32.8,32.8,30.31,NW,322,3.9,3.9,100,0.00,,,0.00,WeatherDisplay:10.37,2013-01-17 14:55:00,
2013-01-17 07:00:00,32.8,32.8,30.31,NNW,335,0.0,0.0,100,0.00,,,0.00,WeatherDisplay:10.37,2013-01-17 15:00:00,
2013-01-17 07:05:00,32.8,32.8,30.31,WNW,302,0.0,0.2,100,0.00,,,0.00,WeatherDisplay:10.37,2013-01-17 15:05:00,
2013-01-17 07:10:00,32.8,32.8,30.31,WNW,302,0.0,0.0,100,0.00,,,0.00,WeatherDisplay:10.37,2013-01-17 15:10:00,
2013-01-17 07:15:00,32.9,32.9,30.31,NNW,330,3.5,3.5,100,0.00,,,0.00,WeatherDisplay:10.37,2013-01-17 15:15:00,
2013-01-17 07:20:00,32.8,32.8,30.31,NW,306,1.5,1.5,100,0.00,,,0.00,WeatherDisplay:10.37,2013-01-17 15:20:00,
2013-01-17 07:25:00,32.8,32.8,30.31,NW,311,2.3,2.3,100,0.00,,,0.00,WeatherDisplay:10.37,2013-01-17 15:25:00,
2013-01-17 07:30:00,32.8,32.8,30.31,NW,311,0.0,0.0,100,0.00,,,0.00,WeatherDisplay:10.37,2013-01-17 15:30:00,
2013-01-17 07:35:00,32.7,32.7,30.31,NNW,337,2.7,2.7,100,0.00,,,0.00,WeatherDisplay:10.37,2013-01-17 15:35:00,
2013-01-17 07:40:00,32.7,32.7,30.31,NNW,335,4.6,4.6,100,0.00,,,0.00,WeatherDisplay:10.37,2013-01-17 15:40:00,
2013-01-17 07:45:00,32.7,32.7,30.31,NW,312,2.3,2.3,100,0.00,,,0.00,WeatherDisplay:10.37,2013-01-17 15:45:00,
2013-01-17 07:50:00,32.7,32.7,30.31,NW,325,0.0,0.0,100,0.00,,,0.00,WeatherDisplay:10.37,2013-01-17 15:50:00,
2013-01-17 07:55:00,32.7,32.7,30.31,NW,304,3.5,3.5,100,0.00,,,0.00,WeatherDisplay:10.37,2013-01-17 15:55:00,
2013-01-17 08:00:00,32.6,32.6,30.31,NW,304,0.0,0.0,100,0.00,,,0.00,WeatherDisplay:10.37,2013-01-17 16:00:00,
2013-01-17 08:05:00,32.6,32.6,30.31,NW,325,3.5,3.5,100,0.00,,,0.00,WeatherDisplay:10.37,2013-01-17 16:05:00,
2013-01-17 08:10:00,32.6,32.6,30.31,NNW,335,2.3,2.3,100,0.00,,,0.00,WeatherDisplay:10.37,2013-01-17 16:10:00,
2013-01-17 08:15:00,32.8,32.8,30.31,North,350,1.5,1.5,100,0.00,,,0.00,WeatherDisplay:10.37,2013-01-17 16:15:00,
2013-01-17 08:20:00,32.8,32.8,30.31,NNW,332,0.0,0.0,100,0.00,,,0.00,WeatherDisplay:10.37,2013-01-17 16:20:00,
2013-01-17 08:25:00,32.8,32.8,30.32,NNW,332,0.0,0.0,100,0.00,,,0.00,WeatherDisplay:10.37,2013-01-17 16:25:00,
2013-01-17 08:30:00,32.8,32.8,30.32,NNW,332,0.0,0.0,100,0.00,,,0.00,WeatherDisplay:10.37,2013-01-17 16:30:00,
2013-01-17 08:35:00,32.9,32.9,30.32,NW,304,1.9,0.0,100,0.00,,,0.00,WeatherDisplay:10.37,2013-01-17 16:35:00,
2013-01-17 08:40:00,32.9,32.9,30.32,NNW,346,3.5,3.5,100,0.00,,,0.00,WeatherDisplay:10.37,2013-01-17 16:40:00,
2013-01-17 08:45:00,32.9,32.9,30.32,North,4,2.0,5.0,100,0.00,,,0.00,WeatherDisplay:10.37,2013-01-17 16:45:00,
2013-01-17 08:50:00,32.7,32.7,30.32,NNE,14,1.0,6.0,100,0.00,,,0.00,WeatherDisplay:10.37,2013-01-17 16:50:00,
2013-01-17 08:55:00,32.8,32.8,30.32,NW,312,3.5,3.5,100,0.00,,,0.00,WeatherDisplay:10.37,2013-01-17 16:55:00,
2013-01-17 09:00:00,32.9,32.9,30.32,NNW,336,1.2,1.2,100,0.00,,,0.00,WeatherDisplay:10.37,2013-01-17 17:00:00,
2013-01-17 09:05:00,32.9,32.9,30.32,NNW,336,0.0,0.0,100,0.00,,,0.00,WeatherDisplay:10.37,2013-01-17 17:05:00,
2013-01-17 09:10:00,33.0,33.0,30.32,NNW,330,2.3,2.3,100,0.00,,,0.00,WeatherDisplay:10.37,2013-01-17 17:10:00,
2013-01-17 09:15:00,32.9,32.9,30.32,NW,306,3.5,3.5,100,0.00,,,0.00,WeatherDisplay:10.37,2013-01-17 17:15:00,
2013-01-17 09:20:00,32.7,32.7,30.32,NW,309,3.5,3.5,100,0.00,,,0.00,WeatherDisplay:10.37,2013-01-17 17:20:00,
2013-01-17 09:25:00,32.8,32.8,30.32,North,10,0.0,0.0,100,0.00,,,0.00,WeatherDisplay:10.37,2013-01-17 17:25:00,
2013-01-17 09:30:00,32.9,32.9,30.32,North,10,0.0,0.0,100,0.00,,,0.00,WeatherDisplay:10.37,2013-01-17 17:30:00,
2013-01-17 09:35:00,32.8,32.8,30.32,North,4,4.6,4.6,100,0.00,,,0.00,WeatherDisplay:10.37,2013-01-17 17:35:00,
2013-01-17 09:40:00,32.6,32.6,30.32,NE,48,6.3,6.3,100,0.00,,,0.00,WeatherDisplay:10.37,2013-01-17 17:40:00,
2013-01-17 09:45:00,32.7,32.7,30.32,NNE,31,4.6,4.6,100,0.00,,,0.00,WeatherDisplay:10.37,2013-01-17 17:45:00,
2013-01-17 09:50:00,32.7,32.7,30.32,NNE,20,5.8,5.8,100,0.00,,,0.00,WeatherDisplay:10.37,2013-01-17 17:50:00,
2013-01-17 09:55:00,32.6,32.6,30.32,NNE,25,4.6,4.6,100,0.00,,,0.00,WeatherDisplay:10.37,2013-01-17 17:55:00,
2013-01-17 10:00:00,32.5,32.5,30.32,NNE,27,6.9,6.9,100,0.00,,,0.00,WeatherDisplay:10.37,2013-01-17 18:00:00,
2013-01-17 10:05:00,32.7,32.7,30.32,NNE,23,5.8,5.8,100,0.00,,,0.00,WeatherDisplay:10.37,2013-01-17 18:05:00,
2013-01-17 10:10:00,32.8,32.8,30.32,North,353,0.0,0.0,100,0.00,,,0.00,WeatherDisplay:10.37,2013-01-17 18:10:00,
2013-01-17 10:15:00,32.9,32.9,30.32,North,353,0.0,0.0,100,0.00,,,0.00,WeatherDisplay:10.37,2013-01-17 18:15:00,
2013-01-17 10:20:00,33.1,33.1,30.32,North,353,0.0,0.0,100,0.00,,,0.00,WeatherDisplay:10.37,2013-01-17 18:20:00,
2013-01-17 10:25:00,33.2,33.2,30.31,WNW,295,1.2,1.2,100,0.00,,,0.00,WeatherDisplay:10.37,2013-01-17 18:25:00,
2013-01-17 10:30:00,33.2,33.2,30.31,WNW,295,0.0,0.0,100,0.00,,,0.00,WeatherDisplay:10.37,2013-01-17 18:30:00,
2013-01-17 10:35:00,33.3,33.3,30.31,NW,306,2.3,2.3,100,0.00,,,0.00,WeatherDisplay:10.37,2013-01-17 18:35:00,
2013-01-17 10:40:00,33.4,33.4,30.31,WNW,291,2.3,2.3,100,0.00,,,0.00,WeatherDisplay:10.37,2013-01-17 18:40:00,
2013-01-17 10:45:00,33.5,33.5,30.31,West,270,0.0,0.0,100,0.00,,,0.00,WeatherDisplay:10.37,2013-01-17 18:45:00,
2013-01-17 10:50:00,33.4,33.4,30.31,NNW,340,2.3,2.3,100,0.00,,,0.00,WeatherDisplay:10.37,2013-01-17 18:50:00,
2013-01-17 10:55:00,33.2,33.2,30.31,North,360,0.0,0.0,100,0.00,,,0.00,WeatherDisplay:10.37,2013-01-17 18:55:00,
2013-01-17 11:00:00,33.3,33.3,30.31,NNW,329,2.3,2.3,100,0.00,,,0.00,WeatherDisplay:10.37,2013-01-17 19:00:00,
2013-01-17 11:05:00,33.3,33.3,30.30,West,281,3.5,3.5,100,0.00,,,0.00,WeatherDisplay:10.37,2013-01-17 19:05:00,
2013-01-17 11:10:00,33.2,33.2,30.30,NNW,340,0.0,0.0,100,0.00,,,0.00,WeatherDisplay:10.37,2013-01-17 19:10:00,
2013-01-17 11:15:00,33.2,33.2,30.30,NNW,340,0.0,0.0,100,0.00,,,0.00,WeatherDisplay:10.37,2013-01-17 19:15:00,
2013-01-17 11:20:00,33.3,33.3,30.30,NNW,340,0.0,0.0,100,0.00,,,0.00,WeatherDisplay:10.37,2013-01-17 19:20:00,
2013-01-17 11:25:00,33.4,33.4,30.30,NNW,340,0.0,0.0,100,0.00,,,0.00,WeatherDisplay:10.37,2013-01-17 19:25:00,
2013-01-17 11:30:00,33.6,33.6,30.30,NNW,340,0.0,0.0,100,0.00,,,0.00,WeatherDisplay:10.37,2013-01-17 19:30:00,
2013-01-17 11:35:00,33.8,33.8,30.29,NNW,340,0.0,0.0,100,0.00,,,0.00,WeatherDisplay:10.37,2013-01-17 19:35:00,
2013-01-17 11:40:00,33.9,33.9,30.29,NNW,328,2.3,2.3,100,0.00,,,0.00,WeatherDisplay:10.37,2013-01-17 19:40:00,
2013-01-17 11:45:00,33.8,33.8,30.28,WNW,291,0.0,0.0,100,0.00,,,0.00,WeatherDisplay:10.37,2013-01-17 19:45:00,
2013-01-17 11:50:00,33.7,33.7,30.28,NNW,336,2.9,2.9,100,0.00,,,0.00,WeatherDisplay:10.37,2013-01-17 19:50:00,
2013-01-17 11:55:00,33.6,33.6,30.28,NNW,344,4.6,4.6,100,0.00,,,0.00,WeatherDisplay:10.37,2013-01-17 19:55:00,
2013-01-17 12:00:00,33.5,33.5,30.28,NW,320,2.5,2.5,100,0.00,,,0.00,WeatherDisplay:10.37,2013-01-17 20:00:00,
2013-01-17 12:05:00,33.6,33.6,30.27,WNW,296,0.0,0.0,100,0.00,,,0.00,WeatherDisplay:10.37,2013-01-17 20:05:00,
2013-01-17 12:10:00,33.7,33.7,30.27,West,272,0.0,0.0,100,0.00,,,0.00,WeatherDisplay:10.37,2013-01-17 20:10:00,
2013-01-17 12:15:00,33.6,33.6,30.27,West,272,0.0,0.0,100,0.00,,,0.00,WeatherDisplay:10.37,2013-01-17 20:15:00,
2013-01-17 12:20:00,33.7,33.7,30.27,West,272,0.0,0.0,100,0.00,,,0.00,WeatherDisplay:10.37,2013-01-17 20:20:00,
2013-01-17 12:25:00,33.7,33.7,30.26,West,272,0.0,0.0,100,0.00,,,0.00,WeatherDisplay:10.37,2013-01-17 20:25:00,
2013-01-17 12:30:00,33.8,33.8,30.26,West,265,0.0,0.0,100,0.00,,,0.00,WeatherDisplay:10.37,2013-01-17 20:30:00,
2013-01-17 12:35:00,33.9,33.9,30.26,West,265,0.0,0.0,100,0.00,,,0.00,WeatherDisplay:10.37,2013-01-17 20:35:00,
2013-01-17 12:40:00,33.8,33.8,30.26,North,356,3.5,3.5,100,0.00,,,0.00,WeatherDisplay:10.37,2013-01-17 20:40:00,
2013-01-17 12:45:00,33.8,33.8,30.26,NW,313,0.0,0.0,100,0.00,,,0.00,WeatherDisplay:10.37,2013-01-17 20:45:00,
2013-01-17 12:50:00,33.8,33.8,30.25,NW,313,0.0,0.0,100,0.00,,,0.00,WeatherDisplay:10.37,2013-01-17 20:50:00,
2013-01-17 12:55:00,33.9,33.9,30.25,NW,313,0.0,0.0,100,0.00,,,0.00,WeatherDisplay:10.37,2013-01-17 20:55:00,
2013-01-17 13:00:00,34.0,34.0,30.25,NW,313,0.0,0.0,100,0.00,,,0.00,WeatherDisplay:10.37,2013-01-17 21:00:00,
2013-01-17 13:05:00,34.0,34.0,30.25,WNW,289,0.0,0.0,100,0.00,,,0.00,WeatherDisplay:10.37,2013-01-17 21:05:00,
2013-01-17 13:10:00,34.0,34.0,30.25,NNW,328,3.0,5.0,100,0.00,,,0.00,WeatherDisplay:10.37,2013-01-17 21:10:00,
2013-01-17 13:15:00,33.8,33.8,30.25,NNE,21,4.6,4.6,100,0.00,,,0.00,WeatherDisplay:10.37,2013-01-17 21:15:00,
2013-01-17 13:20:00,33.8,33.8,30.25,NNW,329,1.2,1.2,100,0.00,,,0.00,WeatherDisplay:10.37,2013-01-17 21:20:00,
2013-01-17 13:25:00,33.9,33.9,30.25,NNW,329,0.0,0.0,100,0.00,,,0.00,WeatherDisplay:10.37,2013-01-17 21:25:00,
2013-01-17 13:30:00,34.0,34.0,30.24,NNW,329,0.0,0.0,100,0.00,,,0.00,WeatherDisplay:10.37,2013-01-17 21:30:00,
2013-01-17 13:35:00,34.0,34.0,30.24,NNW,332,3.5,3.5,100,0.00,,,0.00,WeatherDisplay:10.37,2013-01-17 21:35:00,
2013-01-17 13:40:00,34.1,34.1,30.24,NNW,332,0.0,0.0,100,0.00,,,0.00,WeatherDisplay:10.37,2013-01-17 21:40:00,
2013-01-17 13:45:00,34.2,34.2,30.24,NNW,332,0.0,0.0,100,0.00,,,0.00,WeatherDisplay:10.37,2013-01-17 21:45:00,
2013-01-17 13:50:00,34.2,34.2,30.23,NW,315,0.0,0.0,100,0.00,,,0.00,WeatherDisplay:10.37,2013-01-17 21:50:00,
2013-01-17 13:55:00,34.3,34.3,30.23,NW,316,1.2,0.0,100,0.00,,,0.00,WeatherDisplay:10.37,2013-01-17 21:55:00,
2013-01-17 14:00:00,34.2,34.2,30.23,NNW,328,2.7,2.7,100,0.00,,,0.00,WeatherDisplay:10.37,2013-01-17 22:00:00,
2013-01-17 14:05:00,34.1,34.1,30.23,NW,323,0.0,0.0,100,0.00,CLR,,0.00,WeatherDisplay:10.37,2013-01-17 22:05:00,
2013-01-17 14:10:00,34.0,33.7,30.23,North,8,5.8,5.8,99,0.00,,,0.00,WeatherDisplay:10.37,2013-01-17 22:10:00,
2013-01-17 14:15:00,34.0,33.7,30.23,NNW,335,3.5,3.5,99,0.00,CLR,,0.00,WeatherDisplay:10.37,2013-01-17 22:15:00,
2013-01-17 14:20:00,33.9,33.6,30.23,NNW,335,0.0,0.0,99,0.00,CLR,,0.00,WeatherDisplay:10.37,2013-01-17 22:20:00,
2013-01-17 14:25:00,34.0,33.7,30.23,NNW,335,0.0,0.0,99,0.00,CLR,,0.00,WeatherDisplay:10.37,2013-01-17 22:25:00,
2013-01-17 14:30:00,34.3,34.0,30.23,NNW,335,0.0,0.0,99,0.00,CLR,,0.00,WeatherDisplay:10.37,2013-01-17 22:30:00,
2013-01-17 14:35:00,34.2,33.9,30.23,NW,323,3.5,3.5,99,0.00,CLR,,0.00,WeatherDisplay:10.37,2013-01-17 22:35:00,
2013-01-17 14:40:00,34.3,34.0,30.22,NNW,335,0.0,0.0,99,0.00,CLR,,0.00,WeatherDisplay:10.37,2013-01-17 22:40:00,
2013-01-17 14:46:00,34.4,34.1,30.22,NNW,335,0.0,0.0,99,0.00,CLR,,0.00,WeatherDisplay:10.37,2013-01-17 22:46:00,
2013-01-17 14:51:00,34.6,34.3,30.22,NNW,335,0.0,0.0,99,0.00,CLR,,0.00,WeatherDisplay:10.37,2013-01-17 22:51:00,
2013-01-17 14:56:00,34.4,34.1,30.22,North,6,5.8,5.8,99,0.00,CLR,,0.00,WeatherDisplay:10.37,2013-01-17 22:56:00,
2013-01-17 15:01:00,34.3,34.0,30.22,NE,40,4.6,4.6,99,0.00,CLR,,0.00,WeatherDisplay:10.37,2013-01-17 23:01:00,
2013-01-17 15:06:00,34.3,34.0,30.22,NNE,13,6.0,6.0,99,0.00,CLR,,0.00,WeatherDisplay:10.37,2013-01-17 23:06:00,
2013-01-17 15:11:00,34.1,33.8,30.22,NW,322,5.8,5.8,99,0.00,CLR,,0.00,WeatherDisplay:10.37,2013-01-17 23:11:00,
2013-01-17 15:16:00,34.2,33.9,30.22,NW,305,0.0,0.1,99,0.00,CLR,,0.00,WeatherDisplay:10.37,2013-01-17 23:16:00,
2013-01-17 15:21:00,34.3,34.0,30.22,NW,305,0.0,0.0,99,0.00,CLR,,0.00,WeatherDisplay:10.37,2013-01-17 23:21:00,
2013-01-17 15:26:00,34.4,34.1,30.22,NNW,337,3.5,0.0,99,0.00,CLR,,0.00,WeatherDisplay:10.37,2013-01-17 23:26:00,
2013-01-17 15:31:00,34.4,34.1,30.22,NNW,337,0.0,0.0,99,0.00,CLR,,0.00,WeatherDisplay:10.37,2013-01-17 23:31:00,
2013-01-17 15:36:00,34.4,34.1,30.22,NW,322,3.5,3.5,99,0.00,CLR,,0.00,WeatherDisplay:10.37,2013-01-17 23:36:00,
2013-01-17 15:41:00,34.6,34.3,30.22,NNW,333,5.8,5.8,99,0.00,CLR,,0.00,WeatherDisplay:10.37,2013-01-17 23:41:00,
2013-01-17 15:46:00,34.3,34.0,30.22,NNE,13,6.0,6.0,99,0.00,CLR,,0.00,WeatherDisplay:10.37,2013-01-17 23:46:00,
2013-01-17 15:51:00,34.5,34.2,30.22,NW,315,5.8,5.8,99,0.00,CLR,,0.00,WeatherDisplay:10.37,2013-01-17 23:51:00,
2013-01-17 15:56:00,34.6,34.3,30.22,North,353,0.0,0.0,99,0.00,CLR,,0.00,WeatherDisplay:10.37,2013-01-17 23:56:00,
2013-01-17 16:01:00,34.7,34.4,30.22,North,353,0.0,0.0,99,0.00,CLR,,0.00,WeatherDisplay:10.37,2013-01-18 00:01:00,
2013-01-17 16:06:00,34.8,34.5,30.22,North,353,0.0,0.0,99,0.00,CLR,,0.00,WeatherDisplay:10.37,2013-01-18 00:06:00,
2013-01-17 16:11:00,34.4,34.1,30.22,North,350,8.1,8.1,99,0.00,CLR,,0.00,WeatherDisplay:10.37,2013-01-18 00:11:00,
2013-01-17 16:16:00,34.7,34.4,30.22,North,357,0.0,0.0,99,0.00,CLR,,0.00,WeatherDisplay:10.37,2013-01-18 00:16:00,
2013-01-17 16:21:00,34.9,34.6,30.22,NW,312,0.0,0.0,99,0.00,CLR,,0.00,WeatherDisplay:10.37,2013-01-18 00:21:00,
2013-01-17 16:26:00,35.0,34.5,30.22,NW,312,0.0,0.0,98,0.00,CLR,,0.00,WeatherDisplay:10.37,2013-01-18 00:26:00,
2013-01-17 16:31:00,35.1,34.6,30.21,NW,312,0.0,0.0,98,0.00,CLR,,0.00,WeatherDisplay:10.37,2013-01-18 00:31:00,
2013-01-17 16:36:00,35.1,34.6,30.21,NW,312,0.0,0.0,98,0.00,CLR,,0.00,WeatherDisplay:10.37,2013-01-18 00:36:00,
2013-01-17 16:41:00,35.2,34.7,30.21,NW,312,0.0,0.0,98,0.00,CLR,,0.00,WeatherDisplay:10.37,2013-01-18 00:41:00,
2013-01-17 16:46:00,35.3,34.8,30.21,NW,312,0.0,0.0,98,0.00,CLR,,0.00,WeatherDisplay:10.37,2013-01-18 00:46:00,
2013-01-17 16:51:00,35.3,34.8,30.21,NW,312,0.0,0.0,98,0.00,CLR,,0.00,WeatherDisplay:10.37,2013-01-18 00:51:00,
2013-01-17 16:56:00,35.4,34.9,30.21,NW,312,0.0,0.0,98,0.00,CLR,,0.00,WeatherDisplay:10.37,2013-01-18 00:56:00,
2013-01-17 17:02:00,35.5,35.0,30.20,NW,312,0.0,0.0,98,0.00,CLR,,0.00,WeatherDisplay:10.37,2013-01-18 01:02:00,
2013-01-17 17:07:00,35.5,35.0,30.21,NW,312,0.0,0.0,98,0.00,CLR,,0.00,WeatherDisplay:10.37,2013-01-18 01:07:00,
2013-01-17 17:12:00,35.5,35.0,30.21,NW,312,0.0,0.0,98,0.00,CLR,,0.00,WeatherDisplay:10.37,2013-01-18 01:12:00,
2013-01-17 17:17:00,35.4,34.9,30.21,NW,312,0.0,0.0,98,0.00,CLR,,0.00,WeatherDisplay:10.37,2013-01-18 01:17:00,
2013-01-17 17:22:00,35.5,35.0,30.21,NW,312,0.0,0.0,98,0.00,CLR,,0.00,WeatherDisplay:10.37,2013-01-18 01:22:00,
2013-01-17 17:27:00,35.4,34.9,30.21,NW,312,0.0,0.0,98,0.00,CLR,,0.00,WeatherDisplay:10.37,2013-01-18 01:27:00,
2013-01-17 17:33:00,35.2,34.7,30.21,NW,312,0.0,0.0,98,0.00,CLR,,0.00,WeatherDisplay:10.37,2013-01-18 01:33:00,
2013-01-17 17:39:00,35.1,34.6,30.21,NW,312,0.0,0.0,98,0.00,CLR,,0.00,WeatherDisplay:10.37,2013-01-18 01:39:00,
2013-01-17 17:44:00,35.0,34.5,30.21,NW,312,0.0,0.0,98,0.00,CLR,,0.00,WeatherDisplay:10.37,2013-01-18 01:44:00,
2013-01-17 17:49:00,35.0,34.5,30.21,NW,312,0.0,0.0,98,0.00,CLR,,0.00,WeatherDisplay:10.37,2013-01-18 01:49:00,
2013-01-17 17:54:00,34.9,34.4,30.21,NW,312,0.0,0.0,98,0.00,CLR,,0.00,WeatherDisplay:10.37,2013-01-18 01:54:00,
2013-01-17 17:59:00,34.8,34.3,30.21,NW,312,0.0,0.0,98,0.00,CLR,,0.00,WeatherDisplay:10.37,2013-01-18 01:59:00,
2013-01-17 18:04:00,34.7,34.2,30.21,NW,312,0.0,0.0,98,0.00,CLR,,0.00,WeatherDisplay:10.37,2013-01-18 02:04:00,
2013-01-17 18:09:00,34.7,34.2,30.21,NW,312,0.0,0.0,98,0.00,CLR,,0.00,WeatherDisplay:10.37,2013-01-18 02:09:00,
2013-01-17 18:14:00,34.6,34.1,30.21,NW,312,0.0,0.0,98,0.00,CLR,,0.00,WeatherDisplay:10.37,2013-01-18 02:14:00,
2013-01-17 18:19:00,34.7,34.2,30.21,NW,312,0.0,0.0,98,0.00,CLR,,0.00,WeatherDisplay:10.37,2013-01-18 02:19:00,
2013-01-17 18:24:00,34.7,34.2,30.21,NW,312,0.0,0.0,98,0.00,CLR,,0.00,WeatherDisplay:10.37,2013-01-18 02:24:00,
2013-01-17 18:29:00,34.5,34.0,30.20,NW,312,1.2,1.2,98,0.00,CLR,,0.00,WeatherDisplay:10.37,2013-01-18 02:29:00,
2013-01-17 18:34:00,34.4,33.9,30.20,NW,312,0.0,0.0,98,0.00,CLR,,0.00,WeatherDisplay:10.37,2013-01-18 02:34:00,
2013-01-17 18:39:00,34.4,33.9,30.20,NW,312,0.0,0.0,98,0.00,CLR,,0.00,WeatherDisplay:10.37,2013-01-18 02:39:00,
2013-01-17 18:44:00,34.2,33.7,30.20,NW,312,0.0,0.0,98,0.00,CLR,,0.00,WeatherDisplay:10.37,2013-01-18 02:44:00,
2013-01-17 18:49:00,34.1,33.6,30.20,NW,312,0.0,0.0,98,0.00,CLR,,0.00,WeatherDisplay:10.37,2013-01-18 02:49:00,
2013-01-17 18:54:00,33.9,33.6,30.20,NW,312,0.0,0.0,99,0.00,CLR,,0.00,WeatherDisplay:10.37,2013-01-18 02:54:00,
2013-01-17 18:59:00,33.8,33.5,30.20,NW,312,0.0,0.0,99,0.00,CLR,,0.00,WeatherDisplay:10.37,2013-01-18 02:59:00,
2013-01-17 19:04:00,33.8,33.5,30.20,NW,312,0.0,0.0,99,0.00,CLR,,0.00,WeatherDisplay:10.37,2013-01-18 03:04:00,
2013-01-17 19:09:00,33.8,33.5,30.20,NW,312,0.0,0.0,99,0.00,CLR,,0.00,WeatherDisplay:10.37,2013-01-18 03:09:00,
2013-01-17 19:14:00,33.8,33.5,30.20,NW,312,0.0,0.0,99,0.00,CLR,,0.00,WeatherDisplay:10.37,2013-01-18 03:14:00,
2013-01-17 19:19:00,33.9,33.6,30.20,NW,312,0.0,0.0,99,0.00,CLR,,0.00,WeatherDisplay:10.37,2013-01-18 03:19:00,
2013-01-17 19:24:00,33.9,33.6,30.20,NW,312,0.0,0.0,99,0.00,CLR,,0.00,WeatherDisplay:10.37,2013-01-18 03:24:00,
2013-01-17 19:29:00,34.1,33.8,30.20,NW,312,0.0,0.0,99,0.00,CLR,,0.00,WeatherDisplay:10.37,2013-01-18 03:29:00,
2013-01-17 19:34:00,34.2,33.9,30.20,NW,312,0.0,0.0,99,0.00,CLR,,0.00,WeatherDisplay:10.37,2013-01-18 03:34:00,
2013-01-17 19:39:00,34.2,33.9,30.20,NW,312,0.0,0.0,99,0.00,CLR,,0.00,WeatherDisplay:10.37,2013-01-18 03:39:00,
2013-01-17 19:44:00,34.1,33.8,30.20,NW,312,0.0,0.0,99,0.00,CLR,,0.00,WeatherDisplay:10.37,2013-01-18 03:44:00,
2013-01-17 19:49:00,34.1,33.8,30.20,NW,312,0.0,0.0,99,0.00,CLR,,0.00,WeatherDisplay:10.37,2013-01-18 03:49:00,
2013-01-17 19:54:00,34.1,33.8,30.20,NW,312,0.0,0.0,99,0.00,CLR,,0.00,WeatherDisplay:10.37,2013-01-18 03:54:00,
2013-01-17 19:59:00,34.1,33.8,30.20,NW,312,0.0,0.0,99,0.00,CLR,,0.00,WeatherDisplay:10.37,2013-01-18 03:59:00,
2013-01-17 20:04:00,34.2,33.9,30.20,NW,312,0.0,0.0,99,0.00,CLR,,0.00,WeatherDisplay:10.37,2013-01-18 04:04:00,
2013-01-17 20:09:00,34.1,33.8,30.20,NW,312,0.0,0.0,99,0.00,CLR,,0.00,WeatherDisplay:10.37,2013-01-18 04:09:00,
2013-01-17 20:14:00,34.0,33.7,30.20,NW,312,0.0,0.0,99,0.00,CLR,,0.00,WeatherDisplay:10.37,2013-01-18 04:14:00,
2013-01-17 20:19:00,34.0,33.7,30.20,NW,312,0.0,0.0,99,0.00,CLR,,0.00,WeatherDisplay:10.37,2013-01-18 04:19:00,
2013-01-17 20:24:00,34.0,33.7,30.20,NW,312,0.0,0.0,99,0.00,CLR,,0.00,WeatherDisplay:10.37,2013-01-18 04:24:00,
2013-01-17 20:29:00,33.9,33.6,30.20,NW,312,0.0,0.0,99,0.00,CLR,,0.00,WeatherDisplay:10.37,2013-01-18 04:29:00,
2013-01-17 20:34:00,33.9,33.6,30.20,NW,312,0.0,0.0,99,0.00,CLR,,0.00,WeatherDisplay:10.37,2013-01-18 04:34:00,
2013-01-17 20:39:00,33.9,33.6,30.20,NW,312,0.0,0.0,99,0.00,CLR,,0.00,WeatherDisplay:10.37,2013-01-18 04:39:00,
2013-01-17 20:44:00,34.0,33.7,30.20,NW,312,0.0,0.0,99,0.00,CLR,,0.00,WeatherDisplay:10.37,2013-01-18 04:44:00,
2013-01-17 20:49:00,34.0,33.7,30.20,NW,312,0.0,0.0,99,0.00,CLR,,0.00,WeatherDisplay:10.37,2013-01-18 04:49:00,
2013-01-17 20:54:00,33.9,33.6,30.21,NW,312,0.0,0.0,99,0.00,CLR,,0.00,WeatherDisplay:10.37,2013-01-18 04:54:00,
2013-01-17 20:59:00,34.0,33.7,30.21,NW,312,0.0,0.0,99,0.00,CLR,,0.00,WeatherDisplay:10.37,2013-01-18 04:59:00,
2013-01-17 21:01:00,33.9,33.6,30.21,NW,312,0.0,0.0,99,0.00,CLR,,0.00,WeatherDisplay:10.37,2013-01-18 05:01:00,
2013-01-17 21:02:00,33.9,33.6,30.21,NW,312,0.0,0.0,99,0.00,CLR,,0.00,WeatherDisplay:10.37,2013-01-18 05:02:00,
2013-01-17 21:03:00,33.9,33.6,30.21,NW,312,0.0,0.0,99,0.00,CLR,,0.00,WeatherDisplay:10.37,2013-01-18 05:03:00,
2013-01-17 21:08:00,33.8,33.5,30.20,NW,312,0.0,0.0,99,0.00,CLR,,0.00,WeatherDisplay:10.37,2013-01-18 05:08:00,
2013-01-17 21:13:00,33.9,33.6,30.21,NW,312,0.0,0.0,99,0.00,CLR,,0.00,WeatherDisplay:10.37,2013-01-18 05:13:00,
2013-01-17 21:18:00,33.9,33.6,30.20,NW,312,0.0,0.0,99,0.00,CLR,,0.00,WeatherDisplay:10.37,2013-01-18 05:18:00,
2013-01-17 21:23:00,33.8,33.5,30.21,NW,312,0.0,0.0,99,0.00,CLR,,0.00,WeatherDisplay:10.37,2013-01-18 05:23:00,
2013-01-17 21:28:00,34.0,33.7,30.21,NW,312,0.0,0.0,99,0.00,CLR,,0.00,WeatherDisplay:10.37,2013-01-18 05:28:00,
2013-01-17 21:33:00,33.9,33.6,30.21,NW,312,0.0,0.0,99,0.00,CLR,,0.00,WeatherDisplay:10.37,2013-01-18 05:33:00,
2013-01-17 21:38:00,33.7,33.4,30.21,NW,312,0.0,0.0,99,0.00,CLR,,0.00,WeatherDisplay:10.37,2013-01-18 05:38:00,
2013-01-17 21:44:00,33.7,33.4,30.21,NW,312,0.0,0.0,99,0.00,CLR,,0.00,WeatherDisplay:10.37,2013-01-18 05:44:00,
2013-01-17 21:49:00,33.7,33.4,30.21,NW,312,0.0,0.0,99,0.00,CLR,,0.00,WeatherDisplay:10.37,2013-01-18 05:49:00,
2013-01-17 21:54:00,33.7,33.4,30.21,NW,312,0.0,0.0,99,0.00,CLR,,0.00,WeatherDisplay:10.37,2013-01-18 05:54:00,
2013-01-17 21:59:00,33.6,33.3,30.21,NW,312,0.0,0.0,99,0.00,CLR,,0.00,WeatherDisplay:10.37,2013-01-18 05:59:00,
2013-01-17 22:04:00,33.6,33.3,30.21,NW,312,0.0,0.0,99,0.00,CLR,,0.00,WeatherDisplay:10.37,2013-01-18 06:04:00,
2013-01-17 22:09:00,33.6,33.3,30.21,NW,312,0.0,0.0,99,0.00,CLR,,0.00,WeatherDisplay:10.37,2013-01-18 06:09:00,
2013-01-17 22:14:00,33.6,33.3,30.21,NW,312,0.0,0.0,99,0.00,CLR,,0.00,WeatherDisplay:10.37,2013-01-18 06:14:00,
2013-01-17 22:19:00,33.5,33.5,30.20,NW,312,0.0,0.0,100,0.00,,,0.00,WeatherDisplay:10.37,2013-01-18 06:19:00,
2013-01-17 22:24:00,33.4,33.4,30.20,NW,312,0.0,0.0,100,0.00,,,0.00,WeatherDisplay:10.37,2013-01-18 06:24:00,
2013-01-17 22:29:00,33.5,33.5,30.20,NW,312,0.0,0.0,100,0.00,,,0.00,WeatherDisplay:10.37,2013-01-18 06:29:00,
2013-01-17 22:34:00,33.5,33.5,30.20,NW,312,0.0,0.0,100,0.00,,,0.00,WeatherDisplay:10.37,2013-01-18 06:34:00,
2013-01-17 22:39:00,33.6,33.6,30.20,NW,312,0.0,0.0,100,0.00,,,0.00,WeatherDisplay:10.37,2013-01-18 06:39:00,
2013-01-17 22:44:00,33.7,33.7,30.20,NW,312,0.0,0.0,100,0.00,,,0.00,WeatherDisplay:10.37,2013-01-18 06:44:00,
2013-01-17 22:49:00,33.7,33.7,30.20,NW,312,0.0,0.0,100,0.00,,,0.00,WeatherDisplay:10.37,2013-01-18 06:49:00,
2013-01-17 22:54:00,33.6,33.6,30.20,NW,312,0.0,0.0,100,0.00,,,0.00,WeatherDisplay:10.37,2013-01-18 06:54:00,
2013-01-17 22:59:00,33.7,33.7,30.20,NW,312,0.0,0.0,100,0.00,,,0.00,WeatherDisplay:10.37,2013-01-18 06:59:00,
2013-01-17 23:04:00,33.8,33.8,30.20,NW,312,0.0,0.0,100,0.00,,,0.00,WeatherDisplay:10.37,2013-01-18 07:04:00,
2013-01-17 23:09:00,33.9,33.9,30.20,NW,312,0.0,0.0,100,0.00,,,0.00,WeatherDisplay:10.37,2013-01-18 07:09:00,
2013-01-17 23:14:00,33.8,33.8,30.21,NW,312,0.0,0.0,100,0.00,,,0.00,WeatherDisplay:10.37,2013-01-18 07:14:00,
2013-01-17 23:19:00,33.6,33.6,30.20,NW,312,0.0,0.0,100,0.00,,,0.00,WeatherDisplay:10.37,2013-01-18 07:19:00,
2013-01-17 23:24:00,33.5,33.5,30.20,NW,312,0.0,0.0,100,0.00,,,0.00,WeatherDisplay:10.37,2013-01-18 07:24:00,
2013-01-17 23:29:00,33.3,33.3,30.20,NW,312,0.0,0.0,100,0.00,,,0.00,WeatherDisplay:10.37,2013-01-18 07:29:00,
2013-01-17 23:34:00,33.2,33.2,30.21,NW,312,0.0,0.0,100,0.00,,,0.00,WeatherDisplay:10.37,2013-01-18 07:34:00,
2013-01-17 23:39:00,33.2,33.2,30.20,NW,312,0.0,0.0,100,0.00,,,0.00,WeatherDisplay:10.37,2013-01-18 07:39:00,
2013-01-17 23:44:00,33.3,33.3,30.20,NW,312,0.0,0.0,100,0.00,,,0.00,WeatherDisplay:10.37,2013-01-18 07:44:00,
2013-01-17 23:49:00,33.2,33.2,30.20,NW,312,0.0,0.0,100,0.00,,,0.00,WeatherDisplay:10.37,2013-01-18 07:49:00,
2013-01-17 23:54:00,33.2,33.2,30.20,NW,312,0.0,0.0,100,0.00,,,0.00,WeatherDisplay:10.37,2013-01-18 07:54:00,
2013-01-17 23:59:00,33.1,33.1,30.20,NW,312,0.0,0.0,100,0.00,,,0.00,WeatherDisplay:10.37,2013-01-18 07:59:00,